Time;durP1;ratioP1;P1;durP2;ratioP2;P2;SDS_P1;SDS_P2;PMS_P1;PMS_P2;Temp;Humidity;BMP_temperature;BMP_pressure;BME280_temperature;BME280_humidity;BME280_pressure;Samples;Min_cycle;Max_cycle;Signal;HPM_P1;HPM_P2
2021/12/26 00:00:54;;;;;;;8.90;6.20;;;-3.70;99.90;;;;;;5058616;28;20238;-53
2021/12/26 00:03:24;;;;;;;8.00;5.73;;;-3.70;99.90;;;;;;5062471;28;20267;-54
2021/12/26 00:05:53;;;;;;;7.77;6.07;;;-3.70;99.90;;;;;;5059477;28;20286;-55
2021/12/26 00:08:22;;;;;;;8.93;6.07;;;-3.60;99.90;;;;;;5071944;28;20205;-54
2021/12/26 00:10:51;;;;;;;8.50;5.77;;;-3.60;99.90;;;;;;5072190;28;20214;-54
2021/12/26 00:13:22;;;;;;;8.40;5.90;;;-3.60;99.90;;;;;;5057147;28;20638;-54
2021/12/26 00:15:50;;;;;;;8.57;5.50;;;-3.60;99.90;;;;;;5052201;28;20230;-54
2021/12/26 00:18:18;;;;;;;7.70;5.93;;;-3.60;99.90;;;;;;5052198;28;20622;-54
2021/12/26 00:20:47;;;;;;;7.37;5.63;;;-3.50;99.90;;;;;;5052419;28;20245;-54
2021/12/26 00:23:17;;;;;;;8.77;6.13;;;-3.50;99.90;;;;;;5051687;28;20275;-54
2021/12/26 00:25:46;;;;;;;11.47;6.67;;;-3.50;99.90;;;;;;5052370;28;20234;-53
2021/12/26 00:28:14;;;;;;;7.63;6.43;;;-3.40;99.90;;;;;;5066805;28;20241;-54
2021/12/26 00:30:44;;;;;;;8.17;5.50;;;-3.40;99.90;;;;;;5071614;28;20247;-55
2021/12/26 00:33:13;;;;;;;7.53;5.77;;;-3.30;99.90;;;;;;5071746;28;20206;-55
2021/12/26 00:35:42;;;;;;;8.03;6.10;;;-3.30;99.90;;;;;;5071689;28;20227;-55
2021/12/26 00:38:12;;;;;;;8.93;6.30;;;-3.20;99.90;;;;;;5054394;28;20221;-54
2021/12/26 00:40:41;;;;;;;8.83;6.13;;;-3.00;99.90;;;;;;5051908;28;20199;-56
2021/12/26 00:43:09;;;;;;;8.10;5.30;;;-3.00;99.90;;;;;;5051400;28;20215;-55
2021/12/26 00:45:39;;;;;;;8.80;6.70;;;-2.90;99.90;;;;;;5050974;28;20222;-54
2021/12/26 00:48:09;;;;;;;9.10;7.03;;;-2.80;99.90;;;;;;5051980;28;20206;-54
2021/12/26 00:50:40;;;;;;;7.97;6.23;;;-2.80;99.90;;;;;;5051725;28;20191;-55
2021/12/26 00:53:09;;;;;;;9.47;6.73;;;-2.70;99.90;;;;;;5068723;28;20202;-56
2021/12/26 00:55:37;;;;;;;8.83;6.50;;;-2.60;99.90;;;;;;5070872;28;20226;-55
2021/12/26 00:58:06;;;;;;;9.30;6.60;;;-2.60;99.90;;;;;;5071538;28;20266;-53
2021/12/26 01:00:38;;;;;;;7.50;6.00;;;-2.60;99.90;;;;;;5067488;28;20211;-53
2021/12/26 01:03:08;;;;;;;7.93;6.23;;;-2.60;99.90;;;;;;5070770;28;20246;-53
2021/12/26 01:05:38;;;;;;;9.70;7.13;;;-2.50;99.90;;;;;;5071091;28;20229;-55
2021/12/26 01:08:09;;;;;;;6.70;5.83;;;-2.50;99.90;;;;;;5070985;28;20215;-54
2021/12/26 01:10:40;;;;;;;7.93;5.87;;;-2.40;99.90;;;;;;5071771;28;20200;-54
2021/12/26 01:13:15;;;;;;;7.97;6.80;;;-2.40;99.90;;;;;;5056792;28;20261;-55
2021/12/26 01:15:45;;;;;;;9.33;5.70;;;-2.40;99.90;;;;;;5050960;28;20289;-54
2021/12/26 01:18:15;;;;;;;8.90;6.10;;;-2.40;99.90;;;;;;5050817;28;20204;-55
2021/12/26 01:20:50;;;;;;;6.63;5.60;;;-2.40;99.90;;;;;;5051090;28;20203;-54
2021/12/26 01:23:21;;;;;;;6.37;5.43;;;-2.40;99.90;;;;;;5051373;28;20207;-54
2021/12/26 01:25:49;;;;;;;7.03;5.87;;;-2.40;99.90;;;;;;5055395;28;20244;-53
2021/12/26 01:28:21;;;;;;;6.07;4.73;;;-2.30;99.90;;;;;;5070058;28;20200;-55
2021/12/26 01:30:49;;;;;;;7.80;5.17;;;-2.20;99.90;;;;;;5060659;28;20212;-54
2021/12/26 01:33:20;;;;;;;6.60;5.40;;;-2.20;99.90;;;;;;5050961;28;20747;-53
2021/12/26 01:35:49;;;;;;;6.57;5.23;;;-2.20;99.90;;;;;;5050679;28;20287;-54
2021/12/26 01:38:17;;;;;;;8.63;5.97;;;-2.10;99.90;;;;;;5050985;28;20251;-54
2021/12/26 01:40:50;;;;;;;7.97;6.13;;;-2.10;99.90;;;;;;5050448;28;20258;-55
2021/12/26 01:43:21;;;;;;;9.57;6.47;;;-2.10;99.90;;;;;;5050987;28;20209;-54
2021/12/26 01:45:50;;;;;;;7.70;6.47;;;-2.00;99.90;;;;;;5051277;28;20256;-54
2021/12/26 01:48:21;;;;;;;10.67;6.87;;;-2.10;99.90;;;;;;5059082;28;20270;-56
2021/12/26 01:50:51;;;;;;;9.80;6.67;;;-2.10;99.90;;;;;;5070906;28;20189;-54
2021/12/26 01:53:22;;;;;;;9.77;6.83;;;-2.00;99.90;;;;;;5070376;28;20236;-54
2021/12/26 01:55:51;;;;;;;9.47;6.47;;;-2.00;99.90;;;;;;5070915;28;20712;-54
2021/12/26 01:58:22;;;;;;;8.60;6.83;;;-1.90;99.90;;;;;;5070466;28;20212;-54
2021/12/26 02:00:55;;;;;;;8.20;6.87;;;-2.00;99.90;;;;;;5070713;28;20251;-54
2021/12/26 02:03:25;;;;;;;8.43;6.63;;;-2.00;99.90;;;;;;5070858;28;20261;-54
2021/12/26 02:05:53;;;;;;;8.67;7.03;;;-2.00;99.90;;;;;;5069990;28;20244;-55
2021/12/26 02:08:22;;;;;;;8.67;6.70;;;-1.90;99.90;;;;;;5070717;28;20212;-55
2021/12/26 02:10:50;;;;;;;8.00;6.83;;;-2.00;99.90;;;;;;5070778;28;20209;-55
2021/12/26 02:13:18;;;;;;;11.40;6.63;;;-2.00;99.90;;;;;;5070435;28;20204;-54
2021/12/26 02:15:46;;;;;;;8.47;6.70;;;-2.00;99.90;;;;;;5070578;28;20223;-54
2021/12/26 02:18:15;;;;;;;12.47;7.27;;;-1.90;99.90;;;;;;5070911;28;20208;-54
2021/12/26 02:20:59;;;;;;;10.10;7.33;;;-1.90;99.90;;;;;;5070101;28;20225;-54
2021/12/26 02:23:39;;;;;;;7.47;6.50;;;-1.90;99.90;;;;;;5068702;28;20216;-55
2021/12/26 02:28:54;;;;;;;9.77;7.10;;;-1.90;99.90;;;;;;5070757;28;20216;-54
2021/12/26 02:31:22;;;;;;;9.70;6.57;;;-1.90;99.90;;;;;;5073212;28;20829;-54
2021/12/26 02:33:50;;;;;;;9.27;6.50;;;-1.90;99.90;;;;;;5074459;28;20303;-61
2021/12/26 02:36:19;;;;;;;7.67;6.50;;;-1.80;99.90;;;;;;5071981;28;20269;-56
2021/12/26 02:38:48;;;;;;;9.13;6.80;;;-1.80;99.90;;;;;;5053445;28;20256;-54
2021/12/26 02:41:16;;;;;;;8.53;6.87;;;-1.80;99.90;;;;;;5054035;28;20249;-53
2021/12/26 02:43:45;;;;;;;9.07;7.03;;;-1.80;99.90;;;;;;5055123;28;20209;-56
2021/12/26 02:46:13;;;;;;;9.27;6.33;;;-1.80;99.90;;;;;;5073991;28;20262;-56
2021/12/26 02:48:41;;;;;;;8.63;6.93;;;-1.80;99.90;;;;;;5073558;28;20209;-54
2021/12/26 02:51:10;;;;;;;11.20;7.93;;;-1.80;99.90;;;;;;5073628;28;20201;-55
2021/12/26 02:53:40;;;;;;;9.10;6.50;;;-1.80;99.90;;;;;;5073474;28;20204;-54
2021/12/26 02:56:08;;;;;;;10.23;7.27;;;-1.90;99.90;;;;;;5073869;28;20212;-54
2021/12/26 02:58:36;;;;;;;8.10;6.00;;;-1.90;99.90;;;;;;5072202;28;20737;-54
2021/12/26 03:01:09;;;;;;;8.00;6.13;;;-1.80;99.90;;;;;;5070573;28;20270;-54
2021/12/26 03:03:38;;;;;;;7.93;6.17;;;-1.80;99.90;;;;;;5073427;28;20258;-55
2021/12/26 03:06:16;;;;;;;7.90;6.27;;;-1.80;99.90;;;;;;5073289;28;20262;-54
2021/12/26 03:08:46;;;;;;;8.97;6.80;;;-1.80;99.90;;;;;;5073614;28;20741;-53
2021/12/26 03:11:15;;;;;;;7.90;6.87;;;-1.80;99.90;;;;;;5073176;28;20271;-55
2021/12/26 03:13:43;;;;;;;8.33;6.83;;;-1.90;99.90;;;;;;5054698;28;20206;-53
2021/12/26 03:16:11;;;;;;;10.27;7.23;;;-1.90;99.90;;;;;;5053414;28;20267;-57
2021/12/26 03:18:39;;;;;;;9.07;7.20;;;-1.80;99.90;;;;;;5060668;28;20266;-53
2021/12/26 03:21:07;;;;;;;8.50;6.90;;;-1.80;99.90;;;;;;5073257;28;20229;-54
2021/12/26 03:23:36;;;;;;;9.60;6.57;;;-1.80;99.90;;;;;;5073124;28;20205;-53
2021/12/26 03:26:07;;;;;;;9.47;7.17;;;-1.70;99.90;;;;;;5072895;28;20221;-54
2021/12/26 03:28:35;;;;;;;9.33;7.53;;;-1.80;99.90;;;;;;5071867;28;20201;-54
2021/12/26 03:31:04;;;;;;;10.63;7.63;;;-1.80;99.90;;;;;;5073027;28;20216;-53
2021/12/26 03:33:33;;;;;;;10.80;8.03;;;-1.90;99.90;;;;;;5073068;28;20211;-58
2021/12/26 03:36:02;;;;;;;8.30;7.00;;;-1.90;99.90;;;;;;5072668;28;20224;-54
2021/12/26 03:38:30;;;;;;;10.80;8.03;;;-1.80;99.90;;;;;;5054901;28;20206;-54
2021/12/26 03:40:58;;;;;;;8.83;7.27;;;-1.90;99.90;;;;;;5061609;28;20252;-54
2021/12/26 03:43:28;;;;;;;8.80;7.27;;;-2.00;99.90;;;;;;5072909;28;20244;-54
2021/12/26 03:45:56;;;;;;;9.63;7.27;;;-1.90;99.90;;;;;;5072667;28;20867;-52
2021/12/26 03:48:26;;;;;;;10.30;7.20;;;-1.90;99.90;;;;;;5073270;28;20262;-55
2021/12/26 03:50:55;;;;;;;9.53;7.20;;;-1.90;99.90;;;;;;5072209;28;20254;-54
2021/12/26 03:53:23;;;;;;;9.77;7.00;;;-1.80;99.90;;;;;;5072539;28;20626;-55
2021/12/26 03:55:51;;;;;;;11.17;7.53;;;-1.70;99.90;;;;;;5073012;28;20225;-55
2021/12/26 03:58:20;;;;;;;10.53;7.53;;;-1.70;99.90;;;;;;5072239;28;20212;-54
2021/12/26 04:00:50;;;;;;;8.70;7.10;;;-1.70;99.90;;;;;;5073802;28;20217;-53
2021/12/26 04:03:19;;;;;;;8.63;7.30;;;-1.60;99.90;;;;;;5073833;28;20211;-54
2021/12/26 04:05:47;;;;;;;9.00;7.00;;;-1.60;99.90;;;;;;5073144;28;20251;-55
2021/12/26 04:08:15;;;;;;;8.80;6.60;;;-1.60;99.90;;;;;;5073924;28;20213;-54
2021/12/26 04:10:44;;;;;;;11.27;7.80;;;-1.60;99.90;;;;;;5073732;28;20205;-53
2021/12/26 04:13:12;;;;;;;8.13;7.00;;;-1.60;99.90;;;;;;5072553;28;20752;-53
2021/12/26 04:15:41;;;;;;;8.17;6.70;;;-1.60;99.90;;;;;;5071723;28;20240;-54
2021/12/26 04:18:11;;;;;;;9.27;7.00;;;-1.60;99.90;;;;;;5072382;28;20200;-55
2021/12/26 04:20:39;;;;;;;8.67;7.13;;;-1.60;99.90;;;;;;5072369;28;20274;-52
2021/12/26 04:23:08;;;;;;;10.37;7.57;;;-1.60;99.90;;;;;;5072302;28;20239;-55
2021/12/26 04:25:36;;;;;;;11.07;7.27;;;-1.60;99.90;;;;;;5071880;28;20294;-54
2021/12/26 04:28:04;;;;;;;11.33;7.07;;;-1.60;99.90;;;;;;5071899;28;20197;-55
2021/12/26 04:30:33;;;;;;;8.77;7.03;;;-1.60;99.90;;;;;;5063941;28;20254;-55
2021/12/26 04:33:04;;;;;;;9.77;7.20;;;-1.60;99.90;;;;;;5051840;28;20263;-54
2021/12/26 04:35:33;;;;;;;8.57;6.73;;;-1.60;99.90;;;;;;5071409;28;20229;-55
2021/12/26 04:38:02;;;;;;;8.13;7.27;;;-1.50;99.90;;;;;;5068064;28;20219;-55
2021/12/26 04:40:30;;;;;;;10.40;7.03;;;-1.50;99.90;;;;;;5071731;28;20233;-54
2021/12/26 04:42:58;;;;;;;11.07;7.13;;;-1.50;99.90;;;;;;5071058;28;20286;-54
2021/12/26 04:45:26;;;;;;;9.00;6.67;;;-1.40;99.90;;;;;;5071775;28;20282;-55
2021/12/26 04:47:54;;;;;;;12.27;7.80;;;-1.40;99.90;;;;;;5071513;28;20205;-54
2021/12/26 04:50:27;;;;;;;11.10;7.33;;;-1.40;99.90;;;;;;5062656;28;20210;-55
2021/12/26 04:52:57;;;;;;;10.03;7.50;;;-1.40;99.90;;;;;;5059166;28;20278;-54
2021/12/26 04:55:28;;;;;;;12.13;7.23;;;-1.50;99.90;;;;;;5071309;28;20290;-54
2021/12/26 04:57:57;;;;;;;10.50;7.73;;;-1.60;99.90;;;;;;5071540;28;20217;-54
2021/12/26 05:00:28;;;;;;;8.53;7.60;;;-1.70;99.90;;;;;;5067039;28;20208;-56
2021/12/26 05:02:58;;;;;;;10.13;7.60;;;-1.70;99.90;;;;;;5071761;28;20217;-53
2021/12/26 05:05:27;;;;;;;9.70;7.30;;;-1.60;99.90;;;;;;5070947;28;20221;-54
2021/12/26 05:07:57;;;;;;;9.20;7.43;;;-1.60;99.90;;;;;;5070949;28;20197;-53
2021/12/26 05:10:28;;;;;;;9.63;7.07;;;-1.50;99.90;;;;;;5071224;28;20209;-55
2021/12/26 05:12:57;;;;;;;10.70;8.57;;;-1.50;99.90;;;;;;5071106;28;20205;-54
2021/12/26 05:15:26;;;;;;;8.63;7.23;;;-1.40;99.90;;;;;;5071378;28;20326;-55
2021/12/26 05:17:55;;;;;;;10.57;7.63;;;-1.50;99.90;;;;;;5070932;28;20274;-54
2021/12/26 05:20:24;;;;;;;10.50;7.77;;;-1.50;99.90;;;;;;5071146;28;20212;-54
2021/12/26 05:22:55;;;;;;;9.53;7.17;;;-1.50;99.90;;;;;;5070975;28;20641;-54
2021/12/26 05:25:26;;;;;;;11.83;8.10;;;-1.50;99.90;;;;;;5070770;28;20233;-54
2021/12/26 05:27:55;;;;;;;9.50;7.37;;;-1.50;99.90;;;;;;5064943;28;20202;-55
2021/12/26 05:30:27;;;;;;;10.57;8.00;;;-1.50;99.90;;;;;;5050816;28;20205;-56
2021/12/26 05:32:56;;;;;;;10.63;7.60;;;-1.50;99.90;;;;;;5056573;28;20651;-56
2021/12/26 05:35:24;;;;;;;13.27;7.87;;;-1.60;99.90;;;;;;5070782;28;20225;-55
2021/12/26 05:37:52;;;;;;;10.70;7.50;;;-1.60;99.90;;;;;;5056135;28;20202;-53
2021/12/26 05:40:21;;;;;;;9.23;7.57;;;-1.50;99.90;;;;;;5050844;28;20255;-55
2021/12/26 05:42:50;;;;;;;9.57;7.93;;;-1.60;99.90;;;;;;5050613;28;20229;-54
2021/12/26 05:45:19;;;;;;;10.83;7.67;;;-1.50;99.90;;;;;;5050111;28;20230;-55
2021/12/26 05:47:47;;;;;;;8.97;7.30;;;-1.50;99.90;;;;;;5051322;28;20216;-54
2021/12/26 05:50:18;;;;;;;9.23;7.63;;;-1.40;99.90;;;;;;5050933;28;20290;-54
2021/12/26 05:52:47;;;;;;;9.97;7.67;;;-1.40;99.90;;;;;;5056897;28;20201;-55
2021/12/26 05:55:15;;;;;;;16.83;10.57;;;-1.40;99.90;;;;;;5070798;28;20231;-54
2021/12/26 05:57:44;;;;;;;16.97;9.77;;;-1.40;99.90;;;;;;5069992;28;20267;-54
2021/12/26 06:00:19;;;;;;;10.23;7.50;;;-1.40;99.90;;;;;;5070625;28;20701;-55
2021/12/26 06:02:49;;;;;;;10.87;7.43;;;-1.40;99.90;;;;;;5070492;28;20243;-56
2021/12/26 06:05:18;;;;;;;12.40;8.50;;;-1.40;99.90;;;;;;5073840;28;20307;-54
2021/12/26 06:07:46;;;;;;;11.07;8.37;;;-1.40;99.90;;;;;;5074298;28;20692;-54
2021/12/26 06:10:14;;;;;;;10.10;8.17;;;-1.40;99.90;;;;;;5074511;28;20630;-54
2021/12/26 06:12:42;;;;;;;8.33;7.27;;;-1.40;99.90;;;;;;5073887;28;20231;-54
2021/12/26 06:15:12;;;;;;;10.17;7.70;;;-1.40;99.90;;;;;;5074381;28;20228;-54
2021/12/26 06:17:43;;;;;;;9.63;7.50;;;-1.30;99.90;;;;;;5057435;28;20255;-53
2021/12/26 06:20:14;;;;;;;10.33;7.50;;;-1.30;99.90;;;;;;5061369;28;20209;-54
2021/12/26 06:22:43;;;;;;;10.60;7.80;;;-1.30;99.90;;;;;;5074396;28;20220;-53
2021/12/26 06:25:12;;;;;;;10.10;7.80;;;-1.30;99.90;;;;;;5074069;28;20229;-55
2021/12/26 06:27:40;;;;;;;12.87;7.90;;;-1.30;99.90;;;;;;5069866;28;20616;-53
2021/12/26 06:30:11;;;;;;;9.47;7.67;;;-1.30;99.90;;;;;;5063100;28;20241;-55
2021/12/26 06:32:42;;;;;;;10.40;8.23;;;-1.30;99.90;;;;;;5059795;28;20661;-53
2021/12/26 06:35:12;;;;;;;8.80;7.47;;;-1.30;99.90;;;;;;5066149;28;20256;-52
2021/12/26 06:37:41;;;;;;;10.70;8.00;;;-1.30;99.90;;;;;;5073991;28;20204;-55
2021/12/26 06:40:11;;;;;;;12.30;8.20;;;-1.30;99.90;;;;;;5070495;28;20232;-56
2021/12/26 06:42:42;;;;;;;10.30;7.77;;;-1.30;99.90;;;;;;5053158;28;20788;-55
2021/12/26 06:45:12;;;;;;;11.20;7.80;;;-1.30;99.90;;;;;;5053639;28;20284;-55
2021/12/26 06:47:45;;;;;;;10.47;8.20;;;-1.30;99.90;;;;;;5070842;28;20204;-55
2021/12/26 06:50:13;;;;;;;9.87;8.03;;;-1.30;99.90;;;;;;5073701;28;20240;-53
2021/12/26 06:52:41;;;;;;;9.17;7.53;;;-1.30;99.90;;;;;;5073595;28;20247;-54
2021/12/26 06:55:10;;;;;;;10.37;7.93;;;-1.20;99.90;;;;;;5066492;28;20586;-53
2021/12/26 06:57:40;;;;;;;10.90;7.83;;;-1.30;99.90;;;;;;5053323;28;20206;-54
2021/12/26 07:00:11;;;;;;;11.60;8.13;;;-1.20;99.90;;;;;;5066270;28;20201;-55
2021/12/26 07:02:41;;;;;;;9.70;7.77;;;-1.30;99.90;;;;;;5073651;28;20229;-54
2021/12/26 07:05:11;;;;;;;13.93;8.53;;;-1.30;99.90;;;;;;5064628;28;20239;-54
2021/12/26 07:07:39;;;;;;;10.77;7.83;;;-1.50;99.90;;;;;;5073335;28;20235;-54
2021/12/26 07:10:09;;;;;;;11.03;8.03;;;-1.40;99.90;;;;;;5073688;28;20583;-55
2021/12/26 07:12:38;;;;;;;11.17;8.57;;;-1.30;99.90;;;;;;5071155;28;20255;-55
2021/12/26 07:15:06;;;;;;;12.87;8.53;;;-1.30;99.90;;;;;;5073339;28;20229;-54
2021/12/26 07:17:34;;;;;;;11.27;8.03;;;-1.30;99.90;;;;;;5073172;28;20209;-54
2021/12/26 07:20:05;;;;;;;10.77;8.23;;;-1.20;99.90;;;;;;5068248;28;20571;-54
2021/12/26 07:22:33;;;;;;;11.17;9.07;;;-1.10;99.90;;;;;;5053182;28;20253;-55
2021/12/26 07:25:01;;;;;;;11.67;8.50;;;-1.20;99.90;;;;;;5055014;28;20233;-53
2021/12/26 07:27:30;;;;;;;11.17;8.47;;;-1.20;99.90;;;;;;5072174;28;20727;-55
2021/12/26 07:29:58;;;;;;;10.80;8.77;;;-1.10;99.90;;;;;;5072876;28;20217;-55
2021/12/26 07:32:26;;;;;;;12.33;9.10;;;-1.10;99.90;;;;;;5077670;28;20234;-54
2021/12/26 07:34:55;;;;;;;13.87;8.90;;;-1.10;99.90;;;;;;5093248;28;20234;-54
2021/12/26 07:37:24;;;;;;;11.93;9.23;;;-1.10;99.90;;;;;;5081937;28;20208;-53
2021/12/26 07:39:52;;;;;;;11.90;8.37;;;-1.10;99.90;;;;;;5072483;28;20205;-54
2021/12/26 07:42:21;;;;;;;10.83;8.67;;;-1.00;99.90;;;;;;5071568;28;20225;-54
2021/12/26 07:44:49;;;;;;;10.97;8.60;;;-1.00;99.90;;;;;;5072505;28;20225;-53
2021/12/26 07:47:18;;;;;;;12.47;8.63;;;-1.00;99.90;;;;;;5072998;28;20274;-55
2021/12/26 07:49:46;;;;;;;12.40;8.80;;;-1.00;99.90;;;;;;5072931;28;20583;-55
2021/12/26 07:52:18;;;;;;;10.73;8.43;;;-1.00;99.90;;;;;;5070265;28;20800;-55
2021/12/26 07:54:47;;;;;;;12.33;8.47;;;-0.90;99.90;;;;;;5057624;28;20225;-54
2021/12/26 07:57:16;;;;;;;12.33;9.03;;;-0.90;99.90;;;;;;5052262;28;20242;-53
2021/12/26 07:59:44;;;;;;;13.40;8.70;;;-0.80;99.90;;;;;;5062765;28;20581;-55
2021/12/26 08:02:18;;;;;;;9.13;8.17;;;-0.90;99.90;;;;;;5071891;28;20637;-53
2021/12/26 08:04:47;;;;;;;12.27;8.70;;;-0.90;99.90;;;;;;5056084;28;20239;-55
2021/12/26 08:07:15;;;;;;;13.40;9.57;;;-0.90;99.90;;;;;;5057026;28;20201;-54
2021/12/26 08:09:43;;;;;;;13.60;9.53;;;-0.90;99.90;;;;;;5051892;28;20353;-54
2021/12/26 08:12:13;;;;;;;11.47;8.70;;;-0.90;99.90;;;;;;5051986;28;20267;-54
2021/12/26 08:14:41;;;;;;;12.63;8.87;;;-0.90;99.90;;;;;;5054075;28;20249;-55
2021/12/26 08:17:09;;;;;;;11.77;9.33;;;-0.80;99.90;;;;;;5051347;28;20566;-54
2021/12/26 08:19:37;;;;;;;12.23;8.93;;;-0.80;99.90;;;;;;5052345;28;20260;-53
2021/12/26 08:22:05;;;;;;;12.43;8.77;;;-0.80;99.90;;;;;;5055943;28;20206;-56
2021/12/26 08:24:34;;;;;;;13.30;9.17;;;-0.70;99.90;;;;;;5052321;28;20230;-53
2021/12/26 08:27:02;;;;;;;12.00;8.73;;;-0.70;99.90;;;;;;5055411;28;20200;-54
2021/12/26 08:29:31;;;;;;;13.13;9.40;;;-0.60;99.90;;;;;;5071673;28;20300;-53
2021/12/26 08:32:00;;;;;;;13.27;9.10;;;-0.60;99.90;;;;;;5072239;28;20248;-55
2021/12/26 08:34:29;;;;;;;11.67;9.50;;;-0.50;99.90;;;;;;5071494;28;20237;-54
2021/12/26 08:37:02;;;;;;;12.83;9.83;;;-0.60;99.90;;;;;;5072086;28;20212;-53
2021/12/26 08:39:31;;;;;;;12.90;9.60;;;-0.50;99.90;;;;;;5072080;28;20546;-53
2021/12/26 08:42:00;;;;;;;12.20;9.50;;;-0.50;99.90;;;;;;5071760;28;20209;-55
2021/12/26 08:44:34;;;;;;;13.90;10.03;;;-0.50;99.90;;;;;;5056265;28;20236;-54
2021/12/26 08:47:03;;;;;;;12.60;9.63;;;-0.40;99.90;;;;;;5051337;28;20233;-55
2021/12/26 08:49:32;;;;;;;11.17;9.03;;;-0.40;99.90;;;;;;5051796;28;20851;-53
2021/12/26 08:52:00;;;;;;;12.40;9.10;;;-0.40;99.90;;;;;;5051140;28;20235;-53
2021/12/26 08:54:30;;;;;;;13.20;9.67;;;-0.30;99.90;;;;;;5053424;28;20590;-56
2021/12/26 08:56:59;;;;;;;13.00;9.57;;;-0.30;99.90;;;;;;5054260;28;20578;-56
2021/12/26 08:59:30;;;;;;;13.33;9.57;;;-0.30;99.90;;;;;;5064940;28;20623;-54
2021/12/26 09:02:02;;;;;;;13.23;9.57;;;-0.30;99.90;;;;;;5071258;28;20679;-55
2021/12/26 09:04:31;;;;;;;14.97;10.40;;;-0.30;99.90;;;;;;5066720;28;20230;-55
2021/12/26 09:06:59;;;;;;;12.80;9.83;;;-0.30;99.90;;;;;;5067122;28;20205;-53
2021/12/26 09:09:29;;;;;;;12.60;9.63;;;-0.20;99.90;;;;;;5070344;28;20214;-53
2021/12/26 09:11:57;;;;;;;14.30;11.10;;;-0.10;99.90;;;;;;5065719;28;20210;-55
2021/12/26 09:14:28;;;;;;;15.30;10.37;;;-0.10;99.90;;;;;;5063672;28;20276;-54
2021/12/26 09:16:56;;;;;;;13.87;11.50;;;-0.10;99.90;;;;;;5060296;28;21277;-54
2021/12/26 09:19:28;;;;;;;16.87;11.87;;;-0.10;99.90;;;;;;5057393;28;20198;-54
2021/12/26 09:21:56;;;;;;;14.57;10.47;;;-0.10;99.90;;;;;;5058216;28;20205;-54
2021/12/26 09:24:24;;;;;;;15.17;12.10;;;-0.10;99.90;;;;;;5058434;28;20253;-54
2021/12/26 09:26:53;;;;;;;17.73;12.97;;;0.10;99.90;;;;;;5070846;28;20250;-54
2021/12/26 09:29:22;;;;;;;18.40;13.00;;;0.00;99.90;;;;;;5066926;28;20206;-58
2021/12/26 09:31:50;;;;;;;17.30;13.10;;;0.00;99.90;;;;;;5070921;28;20630;-53
2021/12/26 09:34:19;;;;;;;16.90;12.80;;;0.10;99.90;;;;;;5070497;28;20230;-54
2021/12/26 09:36:49;;;;;;;27.87;20.40;;;0.20;99.90;;;;;;5069292;28;20845;-54
2021/12/26 09:39:18;;;;;;;26.47;19.50;;;0.30;99.90;;;;;;5070005;28;20243;-55
2021/12/26 09:41:46;;;;;;;24.73;16.67;;;0.30;99.90;;;;;;5063946;28;20254;-53
2021/12/26 09:44:21;;;;;;;17.67;13.63;;;0.30;99.90;;;;;;5070680;28;20265;-54
2021/12/26 09:46:49;;;;;;;27.40;17.63;;;0.40;99.90;;;;;;5069929;28;20223;-54
2021/12/26 09:49:17;;;;;;;24.60;16.10;;;0.50;99.90;;;;;;5069179;28;20266;-54
2021/12/26 09:51:45;;;;;;;22.90;16.63;;;0.60;99.90;;;;;;5068414;28;20248;-54
2021/12/26 09:54:15;;;;;;;21.63;15.77;;;0.60;99.90;;;;;;5070145;28;20254;-55
2021/12/26 09:56:44;;;;;;;19.83;14.33;;;0.60;99.90;;;;;;5069772;28;20680;-55
2021/12/26 09:59:16;;;;;;;16.47;12.43;;;0.70;99.90;;;;;;5066740;28;20210;-53
2021/12/26 10:01:47;;;;;;;23.37;14.70;;;0.70;99.90;;;;;;5069886;28;20690;-53
2021/12/26 10:04:36;;;;;;;16.80;13.13;;;0.70;99.90;;;;;;5067932;28;20317;-54
2021/12/26 10:07:06;;;;;;;15.13;12.00;;;0.60;99.90;;;;;;5070303;28;20728;-54
2021/12/26 10:09:39;;;;;;;13.83;10.30;;;0.70;99.90;;;;;;5069627;28;20678;-54
2021/12/26 10:12:12;;;;;;;14.13;9.93;;;0.80;99.90;;;;;;5069527;28;20210;-54
2021/12/26 10:14:43;;;;;;;12.60;10.40;;;0.80;99.90;;;;;;5068023;28;20222;-54
2021/12/26 10:17:13;;;;;;;12.33;10.30;;;1.00;99.90;;;;;;5069885;28;20260;-54
2021/12/26 10:19:44;;;;;;;13.27;11.23;;;1.00;99.90;;;;;;5070060;28;20735;-53
2021/12/26 10:22:14;;;;;;;12.70;10.60;;;1.10;99.90;;;;;;5069993;28;20199;-54
2021/12/26 10:24:45;;;;;;;14.33;11.90;;;1.00;99.90;;;;;;5069748;28;20710;-54
2021/12/26 10:27:16;;;;;;;14.07;10.93;;;1.00;99.90;;;;;;5063568;28;20686;-55
2021/12/26 10:29:46;;;;;;;14.97;11.57;;;1.10;99.90;;;;;;5070136;28;20216;-52
2021/12/26 10:32:17;;;;;;;17.17;11.77;;;1.20;99.90;;;;;;5069626;28;20247;-55
2021/12/26 10:34:47;;;;;;;15.10;11.90;;;1.20;99.90;;;;;;5069300;28;20293;-54
2021/12/26 10:37:18;;;;;;;13.80;11.90;;;1.20;99.90;;;;;;5069638;28;20209;-54
2021/12/26 10:39:49;;;;;;;13.97;11.23;;;1.10;99.90;;;;;;5066780;28;20560;-53
2021/12/26 10:42:20;;;;;;;18.00;11.93;;;1.20;99.90;;;;;;5069327;28;20233;-54
2021/12/26 10:44:52;;;;;;;15.00;11.83;;;1.20;99.90;;;;;;5069269;28;20262;-55
2021/12/26 10:47:22;;;;;;;14.50;11.23;;;1.20;99.90;;;;;;5069584;28;20207;-54
2021/12/26 10:49:54;;;;;;;15.10;11.20;;;1.20;99.90;;;;;;5068273;28;20261;-53
2021/12/26 10:52:25;;;;;;;15.83;11.03;;;1.10;99.90;;;;;;5071765;28;20206;-53
2021/12/26 10:54:58;;;;;;;15.20;11.57;;;1.20;99.90;;;;;;5067369;28;20251;-53
2021/12/26 10:57:30;;;;;;;15.40;11.80;;;1.20;99.90;;;;;;5070096;28;20272;-53
2021/12/26 11:00:07;;;;;;;14.87;12.20;;;1.30;99.90;;;;;;5068265;28;20233;-54
2021/12/26 11:02:41;;;;;;;13.27;10.60;;;1.30;99.90;;;;;;5073316;28;20244;-53
2021/12/26 11:05:12;;;;;;;16.27;11.67;;;1.20;99.90;;;;;;5072100;28;20232;-55
2021/12/26 11:07:46;;;;;;;15.30;11.67;;;1.30;99.90;;;;;;5068855;28;20363;-56
2021/12/26 11:10:18;;;;;;;14.53;11.60;;;1.40;99.90;;;;;;5071105;28;20214;-54
2021/12/26 11:12:49;;;;;;;16.00;12.10;;;1.40;99.90;;;;;;5057145;28;20660;-54
2021/12/26 11:15:20;;;;;;;15.30;11.73;;;1.40;99.90;;;;;;5051450;28;20222;-55
2021/12/26 11:17:50;;;;;;;17.27;12.10;;;1.40;99.90;;;;;;5054291;28;20896;-55
2021/12/26 11:20:21;;;;;;;15.37;12.07;;;1.50;99.90;;;;;;5053621;28;20655;-55
2021/12/26 11:22:50;;;;;;;16.50;13.37;;;1.60;99.90;;;;;;5051901;28;20265;-54
2021/12/26 11:25:21;;;;;;;19.30;13.17;;;1.60;99.90;;;;;;5054499;28;20233;-53
2021/12/26 11:27:49;;;;;;;15.13;12.17;;;1.70;99.90;;;;;;5066014;28;20227;-53
2021/12/26 11:30:20;;;;;;;15.80;12.10;;;1.70;99.90;;;;;;5062906;28;20208;-54
2021/12/26 11:32:48;;;;;;;17.93;12.23;;;1.80;99.90;;;;;;5062681;28;20241;-54
2021/12/26 11:35:17;;;;;;;15.17;11.87;;;1.70;99.90;;;;;;5072153;28;20290;-54
2021/12/26 11:37:45;;;;;;;16.30;12.40;;;1.70;99.90;;;;;;5062506;28;20259;-55
2021/12/26 11:40:16;;;;;;;15.07;12.13;;;1.70;99.90;;;;;;5055031;28;20216;-53
2021/12/26 11:43:42;;;;;;;15.93;12.50;;;1.70;99.90;;;;;;5063150;28;20224;-53
2021/12/26 11:46:21;;;;;;;16.27;11.80;;;1.80;99.90;;;;;;5071336;28;20289;-53
2021/12/26 11:49:09;;;;;;;15.03;12.23;;;1.70;99.90;;;;;;5055126;28;20205;-54
2021/12/26 11:51:56;;;;;;;16.10;12.07;;;1.80;99.90;;;;;;5052611;28;20201;-55
2021/12/26 11:54:45;;;;;;;16.93;12.27;;;1.70;99.90;;;;;;5067794;28;20267;-54
2021/12/26 11:57:45;;;;;;;15.67;12.20;;;1.80;99.90;;;;;;5043155;28;20201;-53
2021/12/26 12:00:18;;;;;;;14.80;11.83;;;1.90;99.90;;;;;;5062502;28;20208;-53
2021/12/26 12:02:49;;;;;;;17.33;12.70;;;1.80;99.90;;;;;;5071264;28;20628;-54
2021/12/26 12:05:20;;;;;;;15.27;10.93;;;1.80;99.90;;;;;;5071913;28;20224;-54
2021/12/26 12:07:56;;;;;;;14.43;11.60;;;1.80;99.90;;;;;;5070568;28;20208;-54
2021/12/26 12:10:43;;;;;;;17.50;14.57;;;1.80;99.90;;;;;;5072227;28;20241;-56
2021/12/26 12:13:15;;;;;;;15.93;12.23;;;1.80;99.90;;;;;;5070007;28;20211;-54
2021/12/26 12:15:50;;;;;;;14.43;11.63;;;1.90;99.90;;;;;;5072423;28;20224;-53
2021/12/26 12:18:21;;;;;;;16.53;13.00;;;1.90;99.90;;;;;;5062034;28;20262;-53
2021/12/26 12:21:11;;;;;;;19.20;14.03;;;2.00;99.90;;;;;;5052250;28;20220;-54
2021/12/26 12:23:58;;;;;;;20.57;13.93;;;2.00;99.90;;;;;;5052395;28;20224;-54
2021/12/26 12:26:41;;;;;;;18.00;13.03;;;2.00;99.90;;;;;;5052011;28;20264;-54
2021/12/26 12:29:10;;;;;;;22.83;17.10;;;2.00;99.90;;;;;;5067403;28;20591;-54
2021/12/26 12:31:39;;;;;;;20.10;14.70;;;2.00;99.90;;;;;;5071983;28;20676;-54
2021/12/26 12:34:10;;;;;;;25.33;18.37;;;2.00;99.90;;;;;;5056074;28;20233;-54
2021/12/26 12:36:40;;;;;;;21.70;15.13;;;2.00;99.90;;;;;;5056423;28;20284;-55
2021/12/26 12:39:18;;;;;;;21.47;15.63;;;2.00;99.90;;;;;;5057189;28;20254;-55
2021/12/26 12:41:49;;;;;;;16.63;13.37;;;2.00;99.90;;;;;;5064944;28;20239;-53
2021/12/26 12:44:32;;;;;;;21.93;15.13;;;2.00;99.90;;;;;;5072021;28;20620;-53
2021/12/26 12:47:05;;;;;;;18.50;13.27;;;2.00;99.90;;;;;;5056307;28;20209;-54
2021/12/26 12:49:48;;;;;;;17.57;12.90;;;2.00;99.90;;;;;;5063711;28;20200;-55
2021/12/26 12:52:43;;;;;;;17.07;13.23;;;2.10;99.90;;;;;;5069107;28;20257;-54
2021/12/26 12:55:14;;;;;;;17.67;12.63;;;2.10;99.90;;;;;;5071331;28;20225;-54
2021/12/26 12:57:43;;;;;;;16.10;12.03;;;2.10;99.90;;;;;;5070056;28;20206;-54
2021/12/26 13:00:39;;;;;;;16.40;12.57;;;2.10;99.90;;;;;;5067375;28;20201;-54